KLNA/LNA METAR and TAF weather

Enter ICAO airport designator
Station Type Date Time Source
KLNA METAR 2019/10/21 22:55 UTC NOAA

KLNA 212255Z AUTO 14008KT 10SM CLR 30/25 A2998 RMK AO2 LTG DSNT W T02960251 PNO


Station Type Date Time Source
KLNA Decoded METAR 2019/10/21 22:55 UTC NOAA

Station name not available
Oct 21, 2019 - 06:55 PM EDT / 2019.10.21 2255 UTC
Wind: from the SE (140 degrees) at 9 MPH (8 KT):0
Visibility: 10 mile(s):0
Sky conditions: clear
Weather: Lightning observed
Temperature: 85.3 F (29.6 C)
Heat index: 95.9 F (35.5 C):1
Dew Point: 77.2 F (25.1 C)
Relative Humidity: 76%
Pressure (altimeter): 29.98 in. Hg (1015 hPa)
ob: KLNA 212255Z AUTO 14008KT 10SM CLR 30/25 A2998 RMK AO2 LTG DSNT W T02960251 PNO
cycle: 23

Station Type Date Time Source
KLNA TAF UTC NOAA

Error!

Example: see airport list